createdAt,value
2023-09-03T00:00:48.272Z,16.18
2023-09-03T00:01:47.605Z,16.14
2023-09-03T00:02:48.335Z,16.17
2023-09-03T00:03:47.581Z,16.16
2023-09-03T00:04:47.411Z,16.04
2023-09-03T00:05:47.450Z,16.11
2023-09-03T00:06:48.333Z,16.04
2023-09-03T00:07:47.371Z,16.01
2023-09-03T00:08:47.428Z,15.99
2023-09-03T00:09:56.796Z,15.99
2023-09-03T00:11:11.329Z,15.93
2023-09-03T00:12:00.421Z,15.93
2023-09-03T00:12:47.084Z,15.88
2023-09-03T00:13:47.139Z,15.91
2023-09-03T00:14:47.023Z,15.84
2023-09-03T00:15:47.144Z,15.85
2023-09-03T00:16:47.159Z,15.80
2023-09-03T00:17:47.048Z,15.86
2023-09-03T00:18:47.009Z,15.80
2023-09-03T00:19:46.833Z,15.80
2023-09-03T00:20:46.920Z,15.81
2023-09-03T00:21:46.789Z,15.74
2023-09-03T00:22:46.734Z,15.78
2023-09-03T00:23:46.693Z,15.80
2023-09-03T00:24:46.697Z,15.86
2023-09-03T00:25:46.657Z,15.81
2023-09-03T00:26:46.624Z,15.81
2023-09-03T00:27:46.525Z,15.78
2023-09-03T00:28:46.588Z,15.71
2023-09-03T00:29:46.595Z,15.74
2023-09-03T00:30:46.459Z,15.77
2023-09-03T00:31:46.423Z,15.73
2023-09-03T00:32:46.399Z,15.70
2023-09-03T00:33:46.323Z,15.76
2023-09-03T00:34:46.265Z,15.74
2023-09-03T00:35:47.027Z,15.81
2023-09-03T00:36:46.193Z,15.98
2023-09-03T00:37:46.212Z,16.01
2023-09-03T00:38:46.141Z,15.96
2023-09-03T00:39:46.106Z,16.01
2023-09-03T00:40:46.057Z,16.01
2023-09-03T00:41:45.988Z,16.07
2023-09-03T00:42:46.006Z,16.10
2023-09-03T00:43:45.990Z,16.10
2023-09-03T00:44:50.425Z,16.06
2023-09-03T00:45:45.908Z,15.95
2023-09-03T00:46:45.849Z,15.93
2023-09-03T00:47:45.894Z,15.93
2023-09-03T00:48:45.729Z,15.93
2023-09-03T00:49:45.691Z,15.92
2023-09-03T00:50:45.751Z,15.96
2023-09-03T00:51:47.422Z,15.95
2023-09-03T00:52:45.644Z,15.95
2023-09-03T00:53:45.639Z,15.95
2023-09-03T00:54:46.461Z,15.84
2023-09-03T00:55:45.513Z,15.78
2023-09-03T00:56:45.436Z,15.71
2023-09-03T00:57:45.429Z,15.78
2023-09-03T00:58:45.410Z,15.71
2023-09-03T00:59:45.343Z,15.76
2023-09-03T01:00:45.288Z,15.85
2023-09-03T01:01:46.019Z,15.74
2023-09-03T01:02:45.999Z,15.73
2023-09-03T01:03:45.261Z,15.76
2023-09-03T01:04:45.161Z,15.74
2023-09-03T01:05:45.458Z,15.68
2023-09-03T01:06:45.102Z,15.64
2023-09-03T01:07:45.047Z,15.55
2023-09-03T01:08:44.981Z,15.56
2023-09-03T01:09:46.967Z,15.59
2023-09-03T01:10:44.910Z,15.66
2023-09-03T01:11:44.873Z,15.70
2023-09-03T01:12:44.859Z,15.62
2023-09-03T01:13:44.851Z,15.60
2023-09-03T01:14:44.748Z,15.68
2023-09-03T01:15:44.811Z,15.62
2023-09-03T01:16:44.680Z,15.56
2023-09-03T01:17:44.645Z,15.56
2023-09-03T01:18:44.626Z,15.56
2023-09-03T01:19:44.646Z,15.64
2023-09-03T01:20:44.721Z,15.44
2023-09-03T01:21:45.448Z,15.49
2023-09-03T01:25:39.267Z,15.74
2023-09-03T01:26:37.308Z,15.84
2023-09-03T01:27:40.463Z,15.92
2023-09-03T01:30:11.203Z,15.98
2023-09-03T01:31:11.273Z,16.14
2023-09-03T01:32:10.712Z,16.17
2023-09-03T01:33:10.645Z,16.32
2023-09-03T01:34:10.622Z,16.25
2023-09-03T01:35:10.604Z,16.26
2023-09-03T01:36:10.692Z,16.37
2023-09-03T01:37:10.717Z,16.25
2023-09-03T01:38:11.341Z,16.25
2023-09-03T01:39:10.474Z,16.32
2023-09-03T01:40:10.425Z,16.25
2023-09-03T01:41:10.435Z,16.16
2023-09-03T01:42:10.381Z,15.99
2023-09-03T01:43:10.332Z,16.13
2023-09-03T01:44:10.260Z,16.16
2023-09-03T01:45:10.736Z,16.18
2023-09-03T01:46:10.285Z,16.22
2023-09-03T01:47:10.155Z,16.16
2023-09-03T01:48:10.199Z,16.23
2023-09-03T01:49:10.176Z,16.14
2023-09-03T01:50:10.017Z,16.22
2023-09-03T01:51:12.316Z,16.13
2023-09-03T01:52:09.961Z,16.11
2023-09-03T01:53:09.913Z,16.18
2023-09-03T01:54:09.879Z,16.18
2023-09-03T01:55:09.856Z,16.03
2023-09-03T01:56:11.740Z,15.93
2023-09-03T01:57:09.813Z,15.98
2023-09-03T01:58:09.780Z,15.95
2023-09-03T01:59:09.683Z,15.84
2023-09-03T02:00:09.650Z,15.77
2023-09-03T02:01:09.634Z,15.77
2023-09-03T02:02:09.650Z,15.68
2023-09-03T02:03:09.542Z,15.74
2023-09-03T02:04:09.474Z,15.70
2023-09-03T02:05:09.541Z,15.70
2023-09-03T02:06:09.534Z,15.66
2023-09-03T02:07:09.511Z,15.74
2023-09-03T02:08:10.258Z,15.70
2023-09-03T02:09:09.286Z,15.56
2023-09-03T02:10:09.300Z,15.60
2023-09-03T02:11:09.361Z,15.53
2023-09-03T02:12:09.183Z,15.55
2023-09-03T02:13:09.213Z,15.60
2023-09-03T02:14:09.086Z,15.71
2023-09-03T02:15:09.080Z,15.56
2023-09-03T02:16:09.064Z,15.53
2023-09-03T02:17:18.329Z,15.49
2023-09-03T02:18:08.968Z,15.48
2023-09-03T02:19:08.899Z,15.52
2023-09-03T02:20:08.915Z,15.52
2023-09-03T02:21:27.332Z,15.41
2023-09-03T02:22:08.779Z,15.46
2023-09-03T02:23:09.286Z,15.40
2023-09-03T02:24:08.813Z,15.37
2023-09-03T02:25:08.717Z,15.37
2023-09-03T02:26:09.356Z,15.37
2023-09-03T02:27:08.618Z,15.49
2023-09-03T02:28:08.672Z,15.46
2023-09-03T02:31:02.715Z,15.43
2023-09-03T02:31:49.697Z,15.43
2023-09-03T02:32:48.557Z,15.37
2023-09-03T02:33:48.611Z,15.43
2023-09-03T02:34:48.449Z,15.46
2023-09-03T02:35:48.465Z,15.40
2023-09-03T02:36:50.331Z,15.33
2023-09-03T02:37:48.477Z,15.31
2023-09-03T02:38:48.365Z,15.34
2023-09-03T02:39:48.318Z,15.27
2023-09-03T02:40:48.292Z,15.22
2023-09-03T02:41:48.216Z,15.22
2023-09-03T02:42:48.266Z,15.23
2023-09-03T02:43:48.286Z,15.15
2023-09-03T02:44:48.152Z,15.19
2023-09-03T02:45:48.263Z,15.12
2023-09-03T02:46:48.037Z,15.25
2023-09-03T02:47:48.021Z,15.27
2023-09-03T02:48:47.982Z,15.16
2023-09-03T02:49:47.954Z,15.09
2023-09-03T02:50:48.753Z,15.03
2023-09-03T02:51:47.858Z,14.91
2023-09-03T02:52:47.802Z,14.97
2023-09-03T02:53:47.756Z,14.98
2023-09-03T02:54:47.740Z,15.00
2023-09-03T02:55:47.729Z,15.04
2023-09-03T02:56:47.785Z,15.00
2023-09-03T02:57:47.682Z,15.04
2023-09-03T02:58:47.678Z,15.01
2023-09-03T02:59:47.527Z,15.03
2023-09-03T03:00:47.495Z,14.95
2023-09-03T03:01:47.520Z,14.91
2023-09-03T03:02:47.434Z,14.97
2023-09-03T03:03:50.227Z,14.94
2023-09-03T03:04:47.514Z,14.86
2023-09-03T03:05:47.375Z,14.80
2023-09-03T03:06:47.371Z,14.79
2023-09-03T03:07:47.275Z,14.87
2023-09-03T03:08:47.202Z,14.80
2023-09-03T03:09:47.182Z,14.87
2023-09-03T03:10:47.727Z,14.75
2023-09-03T03:11:47.191Z,14.82
2023-09-03T03:12:47.014Z,14.83
2023-09-03T03:13:47.026Z,14.74
2023-09-03T03:14:46.966Z,14.78
2023-09-03T03:15:46.959Z,14.83
2023-09-03T03:16:46.920Z,14.79
2023-09-03T03:17:46.893Z,14.79
2023-09-03T03:18:46.820Z,14.82
2023-09-03T03:19:46.783Z,14.72
2023-09-03T03:20:46.734Z,14.79
2023-09-03T03:21:46.694Z,14.54
2023-09-03T03:22:48.246Z,14.67
2023-09-03T03:23:46.741Z,14.49
2023-09-03T03:24:46.626Z,14.64
2023-09-03T03:25:46.694Z,14.72
2023-09-03T03:26:46.666Z,14.61
2023-09-03T03:27:46.603Z,14.63
2023-09-03T03:28:46.461Z,14.53
2023-09-03T03:29:46.389Z,14.63
2023-09-03T03:30:46.338Z,14.71
2023-09-03T03:31:47.404Z,14.63
2023-09-03T03:32:47.276Z,14.63
2023-09-03T03:33:46.292Z,14.60
2023-09-03T03:34:46.180Z,14.46
2023-09-03T03:35:46.162Z,14.53
2023-09-03T03:36:46.131Z,14.46
2023-09-03T03:37:46.159Z,14.45
2023-09-03T03:38:46.087Z,14.46
2023-09-03T03:39:46.718Z,14.38
2023-09-03T03:40:45.923Z,14.46
2023-09-03T03:41:45.925Z,14.41
2023-09-03T03:42:45.875Z,14.42
2023-09-03T03:43:45.873Z,14.31
2023-09-03T03:44:45.830Z,14.34
2023-09-03T03:45:46.797Z,14.29
2023-09-03T03:46:47.258Z,14.34
2023-09-03T03:47:45.776Z,14.31
2023-09-03T03:48:45.745Z,14.34
2023-09-03T03:49:45.633Z,14.41
2023-09-03T03:50:45.560Z,14.46
2023-09-03T03:51:45.528Z,14.53
2023-09-03T03:52:45.461Z,14.42
2023-09-03T03:53:45.475Z,14.36
2023-09-03T03:54:45.401Z,14.46
2023-09-03T03:55:45.348Z,14.39
2023-09-03T03:56:45.329Z,14.36
2023-09-03T03:57:45.431Z,14.42
2023-09-03T03:58:45.718Z,14.80
2023-09-03T03:59:45.210Z,14.97
2023-09-03T04:00:46.172Z,15.07
2023-09-03T04:01:45.208Z,15.16
2023-09-03T04:02:46.890Z,15.22
2023-09-03T04:03:45.225Z,15.35
2023-09-03T04:04:45.017Z,15.40
2023-09-03T04:05:44.998Z,15.48
2023-09-03T04:06:44.957Z,15.46
2023-09-03T04:07:44.902Z,15.48
2023-09-03T04:08:45.174Z,15.49
2023-09-03T04:09:44.807Z,15.55
2023-09-03T04:10:44.789Z,15.55
2023-09-03T04:11:44.768Z,15.52
2023-09-03T04:12:44.730Z,15.49
2023-09-03T04:13:44.680Z,15.55
2023-09-03T04:14:44.623Z,15.51
2023-09-03T04:15:44.652Z,15.49
2023-09-03T04:16:44.624Z,15.53
2023-09-03T04:17:46.150Z,15.53
2023-09-03T04:18:44.506Z,15.68
2023-09-03T04:19:44.513Z,15.46
2023-09-03T04:20:44.458Z,15.55
2023-09-03T04:21:44.368Z,15.56
2023-09-03T04:22:46.272Z,15.51
2023-09-03T04:23:44.299Z,15.58
2023-09-03T04:24:44.323Z,15.58
2023-09-03T04:25:44.724Z,15.62
2023-09-03T04:26:44.686Z,15.60
2023-09-03T04:27:44.728Z,15.64
2023-09-03T04:28:44.197Z,15.60
2023-09-03T04:29:44.049Z,15.67
2023-09-03T04:30:44.093Z,15.53
2023-09-03T04:31:44.046Z,15.56
2023-09-03T04:32:45.274Z,15.52
2023-09-03T04:33:44.697Z,15.56
2023-09-03T04:34:43.931Z,15.56
2023-09-03T04:35:43.848Z,15.56
2023-09-03T04:36:44.778Z,15.49
2023-09-03T04:37:44.779Z,15.58
2023-09-03T04:38:44.752Z,15.59
2023-09-03T04:39:43.740Z,15.60
2023-09-03T04:40:43.671Z,15.53
2023-09-03T04:41:44.223Z,15.58
2023-09-03T04:42:43.679Z,15.59
2023-09-03T04:43:44.263Z,15.51
2023-09-03T04:44:43.460Z,15.62
2023-09-03T04:45:43.453Z,15.66
2023-09-03T04:46:43.486Z,15.66
2023-09-03T04:47:43.416Z,15.60
2023-09-03T04:48:53.060Z,15.70
2023-09-03T04:49:52.806Z,15.70
2023-09-03T04:51:05.280Z,15.67
2023-09-03T04:51:43.202Z,15.67
2023-09-03T04:52:43.141Z,15.71
2023-09-03T04:53:43.135Z,15.59
2023-09-03T04:54:43.070Z,15.68
2023-09-03T04:55:43.036Z,15.70
2023-09-03T04:56:42.990Z,15.58
2023-09-03T04:57:42.970Z,15.66
2023-09-03T04:58:43.469Z,15.70
2023-09-03T04:59:42.901Z,15.60
2023-09-03T05:00:42.855Z,15.77
2023-09-03T05:01:42.842Z,15.73
2023-09-03T05:02:42.823Z,15.71
2023-09-03T05:03:42.872Z,15.77
2023-09-03T05:04:42.684Z,15.73
2023-09-03T05:05:42.685Z,15.80
2023-09-03T05:06:42.652Z,15.76
2023-09-03T05:07:42.628Z,15.81
2023-09-03T05:08:42.536Z,15.89
2023-09-03T05:09:42.500Z,15.81
2023-09-03T05:10:42.461Z,15.73
2023-09-03T05:11:42.450Z,15.84
2023-09-03T05:12:42.382Z,15.81
2023-09-03T05:13:42.362Z,15.78
2023-09-03T05:14:42.308Z,15.85
2023-09-03T05:15:42.279Z,15.91
2023-09-03T05:16:42.283Z,15.85
2023-09-03T05:17:42.248Z,15.89
2023-09-03T05:18:42.159Z,15.91
2023-09-03T05:19:42.124Z,15.95
2023-09-03T05:20:42.074Z,15.93
2023-09-03T05:21:42.061Z,16.01
2023-09-03T05:22:42.004Z,15.96
2023-09-03T05:23:41.973Z,16.04
2023-09-03T05:24:41.927Z,15.98
2023-09-03T05:25:41.891Z,16.04
2023-09-03T05:26:41.865Z,16.03
2023-09-03T05:27:41.844Z,16.10
2023-09-03T05:28:41.781Z,16.03
2023-09-03T05:29:41.789Z,16.01
2023-09-03T05:30:41.701Z,15.99
2023-09-03T05:31:41.734Z,16.03
2023-09-03T05:32:41.671Z,16.03
2023-09-03T05:33:41.594Z,16.01
2023-09-03T05:34:41.553Z,16.01
2023-09-03T05:35:41.520Z,15.96
2023-09-03T05:36:41.493Z,16.01
2023-09-03T05:37:41.441Z,16.11
2023-09-03T05:38:41.407Z,16.17
2023-09-03T05:39:41.386Z,16.07
2023-09-03T05:40:41.323Z,15.93
2023-09-03T05:41:41.314Z,16.06
2023-09-03T05:42:41.259Z,16.06
2023-09-03T05:43:41.210Z,16.10
2023-09-03T05:44:41.174Z,16.03
2023-09-03T05:45:41.178Z,16.10
2023-09-03T05:46:41.117Z,16.08
2023-09-03T05:47:41.106Z,16.13
2023-09-03T05:48:41.029Z,16.06
2023-09-03T05:49:40.992Z,16.03
2023-09-03T05:50:40.951Z,15.99
2023-09-03T05:51:40.917Z,15.96
2023-09-03T05:52:40.880Z,15.99
2023-09-03T05:53:40.865Z,15.93
2023-09-03T05:54:40.816Z,16.03
2023-09-03T05:55:40.990Z,16.06
2023-09-03T05:56:40.732Z,16.03
2023-09-03T05:57:40.692Z,16.07
2023-09-03T05:58:40.649Z,16.13
2023-09-03T05:59:40.644Z,16.10
2023-09-03T06:00:43.451Z,16.11
2023-09-03T06:01:40.586Z,16.22
2023-09-03T06:02:40.508Z,16.14
2023-09-03T06:03:40.534Z,16.22
2023-09-03T06:04:40.424Z,16.22
2023-09-03T06:05:40.484Z,16.33
2023-09-03T06:06:40.352Z,16.22
2023-09-03T06:07:40.352Z,16.14
2023-09-03T06:08:40.336Z,16.18
2023-09-03T06:09:40.266Z,16.27
2023-09-03T06:10:40.203Z,16.41
2023-09-03T06:11:40.173Z,16.34
2023-09-03T06:12:40.121Z,16.33
2023-09-03T06:13:40.116Z,16.44
2023-09-03T06:14:41.083Z,16.48
2023-09-03T06:15:40.032Z,16.51
2023-09-03T06:16:39.991Z,16.44
2023-09-03T06:17:39.962Z,16.45
2023-09-03T06:18:39.999Z,16.45
2023-09-03T06:19:39.900Z,16.40
2023-09-03T06:20:39.838Z,16.32
2023-09-03T06:21:39.800Z,16.42
2023-09-03T06:22:39.754Z,16.34
2023-09-03T06:23:39.741Z,16.23
2023-09-03T06:24:39.684Z,16.25
2023-09-03T06:25:39.662Z,16.36
2023-09-03T06:26:39.607Z,16.47
2023-09-03T06:27:39.586Z,16.48
2023-09-03T06:28:39.535Z,16.59
2023-09-03T06:29:48.062Z,16.65
2023-09-03T06:30:39.463Z,16.72
2023-09-03T06:31:39.471Z,16.78
2023-09-03T06:32:39.406Z,16.77
2023-09-03T06:33:39.342Z,16.80
2023-09-03T06:34:39.310Z,16.73
2023-09-03T06:35:39.294Z,16.88
2023-09-03T06:36:39.230Z,16.77
2023-09-03T06:37:39.205Z,16.90
2023-09-03T06:38:39.171Z,16.96
2023-09-03T06:39:39.126Z,16.99
2023-09-03T06:40:39.100Z,17.03
2023-09-03T06:41:39.073Z,17.07
2023-09-03T06:42:39.018Z,17.14
2023-09-03T06:43:38.976Z,17.06
2023-09-03T06:44:38.965Z,17.09
2023-09-03T06:45:38.920Z,17.18
2023-09-03T06:46:38.951Z,17.25
2023-09-03T06:47:38.963Z,17.18
2023-09-03T06:48:38.790Z,17.39
2023-09-03T06:49:38.768Z,17.55
2023-09-03T06:50:38.744Z,17.49
2023-09-03T06:51:38.684Z,17.46
2023-09-03T06:52:38.649Z,17.47
2023-09-03T06:53:38.625Z,17.36
2023-09-03T06:54:38.574Z,17.22
2023-09-03T06:55:38.547Z,17.22
2023-09-03T06:56:38.517Z,17.22
2023-09-03T06:57:38.464Z,17.18
2023-09-03T06:58:38.438Z,17.17
2023-09-03T06:59:38.427Z,17.15
2023-09-03T07:00:38.393Z,17.22
2023-09-03T07:01:38.382Z,17.25
2023-09-03T07:02:38.314Z,17.35
2023-09-03T07:03:38.315Z,17.40
2023-09-03T07:04:38.218Z,17.65
2023-09-03T07:05:38.206Z,17.63
2023-09-03T07:06:38.142Z,17.66
2023-09-03T07:08:13.964Z,17.62
2023-09-03T07:08:38.082Z,17.62
2023-09-03T07:09:38.067Z,17.63
2023-09-03T07:10:38.077Z,17.70
2023-09-03T07:11:37.961Z,17.87
2023-09-03T07:12:37.943Z,17.92
2023-09-03T07:13:37.899Z,17.81
2023-09-03T07:14:37.855Z,17.96
2023-09-03T07:15:38.014Z,17.89
2023-09-03T07:16:37.841Z,18.01
2023-09-03T07:17:37.797Z,17.98
2023-09-03T07:18:37.756Z,18.02
2023-09-03T07:19:37.712Z,18.19
2023-09-03T07:20:37.722Z,18.32
2023-09-03T07:21:37.750Z,18.34
2023-09-03T07:22:37.730Z,18.46
2023-09-03T07:23:37.534Z,18.56
2023-09-03T07:24:37.497Z,18.47
2023-09-03T07:25:37.465Z,18.60
2023-09-03T07:26:37.461Z,18.64
2023-09-03T07:27:37.405Z,18.64
2023-09-03T07:28:37.360Z,18.53
2023-09-03T07:29:37.322Z,18.54
2023-09-03T07:30:37.328Z,18.54
2023-09-03T07:31:37.242Z,18.59
2023-09-03T07:32:37.241Z,18.54
2023-09-03T07:33:37.201Z,18.47
2023-09-03T07:34:37.149Z,18.49
2023-09-03T07:35:37.120Z,18.64
2023-09-03T07:36:37.083Z,18.65
2023-09-03T07:37:37.026Z,18.66
2023-09-03T07:38:36.996Z,18.72
2023-09-03T07:39:36.974Z,18.75
2023-09-03T07:40:36.925Z,18.62
2023-09-03T07:41:36.887Z,18.57
2023-09-03T07:42:36.859Z,18.65
2023-09-03T07:43:36.837Z,18.66
2023-09-03T07:44:36.782Z,18.66
2023-09-03T07:45:36.751Z,18.76
2023-09-03T07:46:36.829Z,18.79
2023-09-03T07:47:36.727Z,18.87
2023-09-03T07:48:36.686Z,18.93
2023-09-03T07:49:36.614Z,18.97
2023-09-03T07:50:36.573Z,19.06
2023-09-03T07:51:36.560Z,19.06
2023-09-03T07:52:36.515Z,19.05
2023-09-03T07:53:36.476Z,19.32
2023-09-03T07:54:36.442Z,19.45
2023-09-03T07:55:36.427Z,19.60
2023-09-03T07:56:36.378Z,19.62
2023-09-03T07:57:36.356Z,19.79
2023-09-03T07:58:36.298Z,19.98
2023-09-03T07:59:36.272Z,20.41
2023-09-03T08:00:36.255Z,20.78
2023-09-03T08:01:36.203Z,21.12
2023-09-03T08:02:36.171Z,21.53
2023-09-03T08:03:36.208Z,21.75
2023-09-03T08:04:36.102Z,22.26
2023-09-03T08:05:36.052Z,22.61
2023-09-03T08:06:36.021Z,22.99
2023-09-03T08:07:36.003Z,23.25
2023-09-03T08:08:35.996Z,23.09
2023-09-03T08:09:35.939Z,23.11
2023-09-03T08:10:35.889Z,22.96
2023-09-03T08:11:35.856Z,23.12
2023-09-03T08:12:35.808Z,23.35
2023-09-03T08:13:36.761Z,23.53
2023-09-03T08:14:35.811Z,23.47
2023-09-03T08:15:44.315Z,23.59
2023-09-03T08:16:35.716Z,23.75
2023-09-03T08:17:35.655Z,23.86
2023-09-03T08:18:35.624Z,24.15
2023-09-03T08:19:35.592Z,24.12
2023-09-03T08:20:35.555Z,24.00
2023-09-03T08:21:36.037Z,23.94
2023-09-03T08:22:35.487Z,23.92
2023-09-03T08:23:35.462Z,24.04
2023-09-03T08:24:35.425Z,24.26
2023-09-03T08:25:35.398Z,24.45
2023-09-03T08:26:35.393Z,24.59
2023-09-03T08:27:35.338Z,24.64
2023-09-03T08:28:35.310Z,24.68
2023-09-03T08:29:35.277Z,24.67
2023-09-03T08:30:35.255Z,24.48
2023-09-03T08:31:35.264Z,24.55
2023-09-03T08:32:35.223Z,24.74
2023-09-03T08:33:35.140Z,25.01
2023-09-03T08:34:35.122Z,25.41
2023-09-03T08:35:35.108Z,24.86
2023-09-03T08:36:35.049Z,24.55
2023-09-03T08:37:35.057Z,24.14
2023-09-03T08:38:34.985Z,24.16
2023-09-03T08:39:34.968Z,24.41
2023-09-03T08:40:34.922Z,24.61
2023-09-03T08:41:34.913Z,24.79
2023-09-03T08:42:34.886Z,25.09
2023-09-03T08:43:34.844Z,25.22
2023-09-03T08:44:34.850Z,25.51
2023-09-03T08:45:34.818Z,25.69
2023-09-03T08:46:34.749Z,25.75
2023-09-03T08:47:34.748Z,25.71
2023-09-03T08:48:34.687Z,25.17
2023-09-03T08:49:34.649Z,25.14
2023-09-03T08:50:34.647Z,25.17
2023-09-03T08:51:34.598Z,25.57
2023-09-03T08:52:34.550Z,25.82
2023-09-03T08:53:34.547Z,26.06
2023-09-03T08:54:34.487Z,25.89
2023-09-03T08:55:34.457Z,25.89
2023-09-03T08:56:34.463Z,25.82
2023-09-03T08:57:34.402Z,26.04
2023-09-03T08:58:34.372Z,26.17
2023-09-03T08:59:34.337Z,26.23
2023-09-03T09:00:34.388Z,26.11
2023-09-03T09:01:34.468Z,25.98
2023-09-03T09:02:34.321Z,25.93
2023-09-03T09:03:34.337Z,25.86
2023-09-03T09:04:34.193Z,26.19
2023-09-03T09:05:35.722Z,26.35
2023-09-03T09:06:34.133Z,26.60
2023-09-03T09:07:34.100Z,26.68
2023-09-03T09:08:34.077Z,26.73
2023-09-03T09:09:34.028Z,26.69
2023-09-03T09:10:34.076Z,26.86
2023-09-03T09:11:33.981Z,26.94
2023-09-03T09:12:33.945Z,26.84
2023-09-03T09:13:33.920Z,26.71
2023-09-03T09:14:33.895Z,26.61
2023-09-03T09:15:33.901Z,25.79
2023-09-03T09:16:33.823Z,25.78
2023-09-03T09:17:33.833Z,25.90
2023-09-03T09:18:33.770Z,26.01
2023-09-03T09:19:33.742Z,26.12
2023-09-03T09:20:33.728Z,26.17
2023-09-03T09:21:33.700Z,26.12
2023-09-03T09:22:33.636Z,25.98
2023-09-03T09:23:33.628Z,26.19
2023-09-03T09:24:43.558Z,26.36
2023-09-03T09:25:43.584Z,26.59
2023-09-03T09:26:42.623Z,26.98
2023-09-03T09:27:35.153Z,27.15
2023-09-03T09:28:33.495Z,26.90
2023-09-03T09:29:33.435Z,26.81
2023-09-03T09:30:33.411Z,26.83
2023-09-03T09:31:33.409Z,26.97
2023-09-03T09:32:33.364Z,27.08
2023-09-03T09:33:33.342Z,27.40
2023-09-03T09:34:33.335Z,27.96
2023-09-03T09:35:33.308Z,28.06
2023-09-03T09:36:33.252Z,28.18
2023-09-03T09:37:33.204Z,28.11
2023-09-03T09:38:33.183Z,27.84
2023-09-03T09:39:33.162Z,27.80
2023-09-03T09:40:33.142Z,27.69
2023-09-03T09:41:33.096Z,27.78
2023-09-03T09:42:33.058Z,27.83
2023-09-03T09:43:33.049Z,27.93
2023-09-03T09:44:33.006Z,27.96
2023-09-03T09:45:33.008Z,28.20
2023-09-03T09:46:33.148Z,28.15
2023-09-03T09:47:32.935Z,27.95
2023-09-03T09:48:32.877Z,27.98
2023-09-03T09:49:32.861Z,27.50
2023-09-03T09:50:32.822Z,27.50
2023-09-03T09:51:32.812Z,27.72
2023-09-03T09:52:32.776Z,27.91
2023-09-03T09:53:32.753Z,27.21
2023-09-03T09:54:32.714Z,27.01
2023-09-03T09:55:32.704Z,26.87
2023-09-03T09:56:32.689Z,26.78
2023-09-03T09:57:32.637Z,27.09
2023-09-03T09:58:32.596Z,27.15
2023-09-03T09:59:32.579Z,27.24
2023-09-03T10:00:32.641Z,27.23
2023-09-03T10:01:32.512Z,27.27
2023-09-03T10:02:32.510Z,27.49
2023-09-03T10:03:32.523Z,27.84
2023-09-03T10:04:32.443Z,28.17
2023-09-03T10:05:32.447Z,27.95
2023-09-03T10:06:32.426Z,27.58
2023-09-03T10:07:32.353Z,27.62
2023-09-03T10:08:32.315Z,27.35
2023-09-03T10:09:32.288Z,27.28
2023-09-03T10:10:32.270Z,27.16
2023-09-03T10:11:32.266Z,27.30
2023-09-03T10:12:32.193Z,27.48
2023-09-03T10:13:32.172Z,26.96
2023-09-03T10:14:32.144Z,27.12
2023-09-03T10:15:32.193Z,27.43
2023-09-03T10:16:33.873Z,27.72
2023-09-03T10:17:32.155Z,27.62
2023-09-03T10:18:32.036Z,27.62
2023-09-03T10:19:32.004Z,27.43
2023-09-03T10:20:32.006Z,27.43
2023-09-03T10:21:52.559Z,27.93
2023-09-03T10:22:31.921Z,28.35
2023-09-03T10:23:31.881Z,28.25
2023-09-03T10:24:31.867Z,28.13
2023-09-03T10:25:31.829Z,27.58
2023-09-03T10:26:31.826Z,27.11
2023-09-03T10:27:31.784Z,27.12
2023-09-03T10:28:31.831Z,26.73
2023-09-03T10:29:31.789Z,26.84
2023-09-03T10:30:31.689Z,26.83
2023-09-03T10:31:31.669Z,26.65
2023-09-03T10:32:31.672Z,26.56
2023-09-03T10:33:31.611Z,26.51
2023-09-03T10:34:31.567Z,26.65
2023-09-03T10:35:31.545Z,26.65
2023-09-03T10:36:31.517Z,26.91
2023-09-03T10:37:31.480Z,27.28
2023-09-03T10:38:31.463Z,27.16
2023-09-03T10:39:31.429Z,27.15
2023-09-03T10:40:31.396Z,27.25
2023-09-03T10:41:31.377Z,27.31
2023-09-03T10:42:31.373Z,27.16
2023-09-03T10:43:31.312Z,27.23
2023-09-03T10:44:31.308Z,27.27
2023-09-03T10:45:31.258Z,27.48
2023-09-03T10:46:31.248Z,27.69
2023-09-03T10:47:31.251Z,27.84
2023-09-03T10:48:31.164Z,27.52
2023-09-03T10:49:39.893Z,27.69
2023-09-03T10:50:31.132Z,27.90
2023-09-03T10:51:31.156Z,28.08
2023-09-03T10:52:31.050Z,27.99
2023-09-03T10:53:31.090Z,27.76
2023-09-03T10:54:30.993Z,27.99
2023-09-03T10:55:30.971Z,27.98
2023-09-03T10:56:30.925Z,28.15
2023-09-03T10:57:30.926Z,27.98
2023-09-03T10:58:30.881Z,27.84
2023-09-03T10:59:30.845Z,27.21
2023-09-03T11:00:30.817Z,27.02
2023-09-03T11:01:30.817Z,26.78
2023-09-03T11:02:30.807Z,26.66
2023-09-03T11:03:30.790Z,26.69
2023-09-03T11:04:30.734Z,26.73
2023-09-03T11:05:30.669Z,27.06
2023-09-03T11:06:30.634Z,26.96
2023-09-03T11:07:30.605Z,27.21
2023-09-03T11:08:30.644Z,27.31
2023-09-03T11:09:30.556Z,27.25
2023-09-03T11:10:30.516Z,27.08
2023-09-03T11:11:31.705Z,27.05
2023-09-03T11:12:30.464Z,27.03
2023-09-03T11:13:39.166Z,27.13
2023-09-03T11:14:30.420Z,27.20
2023-09-03T11:15:30.412Z,27.49
2023-09-03T11:16:30.354Z,27.28
2023-09-03T11:17:30.374Z,27.30
2023-09-03T11:18:30.307Z,27.34
2023-09-03T11:19:30.267Z,27.30
2023-09-03T11:20:43.664Z,27.02
2023-09-03T11:21:30.211Z,27.12
2023-09-03T11:22:30.202Z,27.38
2023-09-03T11:23:31.925Z,27.45
2023-09-03T11:24:30.620Z,27.50
2023-09-03T11:25:30.085Z,27.58
2023-09-03T11:26:30.061Z,27.63
2023-09-03T11:27:30.045Z,27.83
2023-09-03T11:28:30.019Z,27.86
2023-09-03T11:29:29.976Z,27.71
2023-09-03T11:30:29.945Z,27.50
2023-09-03T11:31:30.010Z,27.77
2023-09-03T11:32:30.027Z,27.95
2023-09-03T11:33:29.861Z,27.88
2023-09-03T11:34:29.827Z,27.66
2023-09-03T11:35:29.807Z,27.52
2023-09-03T11:36:29.774Z,27.23
2023-09-03T11:37:29.759Z,27.27
2023-09-03T11:38:29.716Z,27.35
2023-09-03T11:39:29.697Z,27.43
2023-09-03T11:40:29.665Z,27.33
2023-09-03T11:41:29.630Z,27.38
2023-09-03T11:42:29.636Z,27.16
2023-09-03T11:43:29.577Z,26.97
2023-09-03T11:44:29.543Z,26.88
2023-09-03T11:45:29.513Z,26.97
2023-09-03T11:46:29.508Z,27.06
2023-09-03T11:47:29.460Z,26.94
2023-09-03T11:48:29.437Z,27.05
2023-09-03T11:49:29.405Z,27.08
2023-09-03T11:50:29.363Z,26.79
2023-09-03T11:51:29.846Z,26.46
2023-09-03T11:52:29.300Z,26.39
2023-09-03T11:53:29.291Z,26.36
2023-09-03T11:54:29.262Z,26.36
2023-09-03T11:55:29.240Z,26.36
2023-09-03T11:56:29.192Z,26.50
2023-09-03T11:57:29.155Z,26.60
2023-09-03T11:58:29.128Z,26.78
2023-09-03T11:59:29.100Z,26.94
2023-09-03T12:00:29.090Z,26.96
2023-09-03T12:01:29.078Z,26.87
2023-09-03T12:02:29.010Z,26.68
2023-09-03T12:03:29.127Z,26.44
2023-09-03T12:04:28.962Z,26.39
2023-09-03T12:05:28.922Z,26.35
2023-09-03T12:06:28.882Z,26.36
2023-09-03T12:07:28.856Z,26.53
2023-09-03T12:08:28.836Z,26.44
2023-09-03T12:09:28.807Z,26.34
2023-09-03T12:10:28.910Z,26.44
2023-09-03T12:11:28.738Z,26.54
2023-09-03T12:12:28.723Z,26.76
2023-09-03T12:13:28.676Z,26.66
2023-09-03T12:14:28.648Z,26.71
2023-09-03T12:15:28.614Z,26.79
2023-09-03T12:16:28.682Z,26.86
2023-09-03T12:17:28.691Z,26.66
2023-09-03T12:18:28.552Z,26.59
2023-09-03T12:19:28.536Z,26.47
2023-09-03T12:20:28.480Z,26.24
2023-09-03T12:21:28.463Z,25.74
2023-09-03T12:22:28.409Z,25.44
2023-09-03T12:23:28.389Z,25.49
2023-09-03T12:24:28.346Z,25.49
2023-09-03T12:25:28.310Z,25.49
2023-09-03T12:26:28.281Z,25.59
2023-09-03T12:27:28.266Z,25.69
2023-09-03T12:28:28.221Z,25.67
2023-09-03T12:29:41.814Z,25.78
2023-09-03T12:30:28.197Z,25.91
2023-09-03T12:31:28.158Z,25.91
2023-09-03T12:32:28.130Z,25.90
2023-09-03T12:33:28.067Z,25.85
2023-09-03T12:34:28.038Z,25.74
2023-09-03T12:35:28.010Z,25.83
2023-09-03T12:36:27.990Z,25.89
2023-09-03T12:37:27.956Z,25.91
2023-09-03T12:38:29.883Z,25.79
2023-09-03T12:39:27.880Z,25.78
2023-09-03T12:40:27.849Z,25.74
2023-09-03T12:41:27.824Z,25.66
2023-09-03T12:42:27.844Z,25.67
2023-09-03T12:43:27.758Z,25.66
2023-09-03T12:44:27.724Z,25.61
2023-09-03T12:45:27.694Z,25.49
2023-09-03T12:46:27.696Z,25.59
2023-09-03T12:47:27.688Z,25.59
2023-09-03T12:48:27.615Z,25.56
2023-09-03T12:49:27.572Z,25.59
2023-09-03T12:50:36.801Z,25.60
2023-09-03T12:51:38.421Z,25.45
2023-09-03T12:52:36.899Z,25.41
2023-09-03T12:53:36.406Z,25.42
2023-09-03T12:54:36.937Z,25.27
2023-09-03T12:55:27.389Z,25.26
2023-09-03T12:56:36.008Z,25.16
2023-09-03T12:57:36.031Z,25.16
2023-09-03T12:58:36.518Z,25.20